< < Back
Terminal Aerodrome Forecast


Current Version              Previous Versions:   1  2  3  4  5  6  7  8  9  

Terminal Aerodrome Forecast

524
FTUS44 KBMX 020520
TAFBHM
TAF
KBHM 020520Z 0206/0306 03003KT P6SM SKC
     FM021400 04004KT P6SM SKC
     FM021700 01007KT P6SM FEW050
     FM030100 00000KT P6SM SKC=

Latest METAR

778
SAUS70 KWBC 030000 RRA
MTRBHM
METAR KBHM 022353Z 36007KT 10SM SCT250 32/12 A2990 RMK AO2 SLP115
T03220122 10356 20322 58003


USA.gov is the U.S. government's official web portal to all federal, state and local government web resources and services.